createdAt,value
2018-06-12T01:06:39.357Z,14.53
2018-06-12T01:07:39.219Z,14.60
2018-06-12T01:08:39.272Z,14.64
2018-06-12T01:09:40.146Z,14.67
2018-06-12T01:10:39.073Z,14.64
2018-06-12T01:11:39.181Z,14.64
2018-06-12T01:12:39.023Z,14.56
2018-06-12T01:13:39.081Z,14.60
2018-06-12T01:14:38.956Z,14.63
2018-06-12T01:15:39.068Z,14.61
2018-06-12T01:16:38.920Z,14.60
2018-06-12T01:17:38.986Z,14.66
2018-06-12T01:19:53.201Z,14.57
2018-06-12T01:20:53.178Z,14.60
2018-06-12T01:21:53.143Z,14.66
2018-06-12T01:22:53.142Z,14.60
2018-06-12T01:23:53.108Z,14.60
2018-06-12T01:24:53.158Z,14.59
2018-06-12T01:25:53.044Z,14.54
2018-06-12T01:26:57.547Z,14.63
2018-06-12T01:27:53.013Z,14.56
2018-06-12T01:28:53.982Z,14.57
2018-06-12T01:29:52.922Z,14.57
2018-06-12T01:30:58.642Z,14.60
2018-06-12T01:31:52.851Z,14.56
2018-06-12T01:32:53.897Z,14.52
2018-06-12T01:33:52.833Z,14.48
2018-06-12T01:34:53.907Z,14.41
2018-06-12T01:35:52.768Z,14.41
2018-06-12T01:36:52.873Z,14.48
2018-06-12T01:37:52.744Z,14.48
2018-06-12T01:39:03.562Z,14.59
2018-06-12T01:39:52.669Z,14.56
2018-06-12T01:40:52.731Z,14.49
2018-06-12T01:41:52.626Z,14.59
2018-06-12T01:42:53.682Z,14.49
2018-06-12T01:43:52.595Z,14.67
2018-06-12T01:44:57.587Z,14.56
2018-06-12T01:45:52.546Z,14.60
2018-06-12T01:46:52.586Z,14.64
2018-06-12T01:47:52.504Z,14.64
2018-06-12T01:51:07.564Z,14.64
2018-06-12T01:52:07.519Z,14.63
2018-06-12T01:53:08.576Z,14.66
2018-06-12T01:54:07.458Z,14.63
2018-06-12T01:55:07.489Z,14.56
2018-06-12T01:56:07.443Z,14.59
2018-06-12T01:57:12.436Z,14.66
2018-06-12T01:58:07.362Z,14.64
2018-06-12T01:59:07.414Z,14.63
2018-06-12T02:00:07.335Z,14.80
2018-06-12T02:01:07.452Z,14.66
2018-06-12T02:02:07.304Z,14.61
2018-06-12T02:03:07.344Z,14.61
2018-06-12T02:04:07.250Z,14.61
2018-06-12T02:05:09.291Z,14.63
2018-06-12T02:06:07.170Z,14.61
2018-06-12T02:07:09.274Z,14.60
2018-06-12T02:08:07.264Z,14.61
2018-06-12T02:09:09.191Z,14.60
2018-06-12T02:10:07.106Z,14.64
2018-06-12T02:11:11.907Z,14.67
2018-06-12T02:12:07.060Z,14.61
2018-06-12T02:13:09.022Z,14.57
2018-06-12T02:14:07.055Z,14.61
2018-06-12T05:14:14.495Z,14.61
2018-06-12T05:15:14.424Z,14.61
2018-06-12T05:16:14.483Z,14.63
2018-06-12T05:17:14.362Z,14.69
2018-06-12T05:18:14.598Z,14.61
2018-06-12T05:19:14.423Z,14.74
2018-06-12T05:20:14.271Z,14.64
2018-06-12T05:21:14.305Z,14.63
2018-06-12T05:23:00.134Z,14.69
2018-06-12T05:24:00.005Z,14.64
2018-06-12T05:25:00.009Z,14.67
2018-06-12T05:25:59.986Z,14.74
2018-06-12T05:26:59.938Z,14.72
2018-06-12T05:28:00.006Z,14.86
2018-06-12T05:28:59.888Z,14.79
2018-06-12T05:29:59.900Z,14.83
2018-06-12T05:31:00.082Z,14.82
2018-06-12T07:04:03.588Z,16.40
2018-06-12T07:05:00.447Z,16.32
2018-06-12T07:06:00.163Z,16.27
2018-06-12T07:07:00.133Z,16.26
2018-06-12T07:08:00.662Z,16.29
2018-06-12T07:09:00.452Z,16.33
2018-06-12T07:10:00.086Z,16.32
2018-06-12T07:11:02.236Z,16.34
2018-06-12T07:12:00.140Z,16.32
2018-06-12T07:13:03.500Z,16.30
2018-06-12T07:17:04.768Z,16.33
2018-06-12T07:18:17.342Z,16.42
2018-06-12T07:19:04.376Z,16.33
2018-06-12T07:20:10.431Z,16.29
2018-06-12T07:21:04.597Z,16.44
2018-06-12T07:22:05.362Z,16.30
2018-06-12T07:23:04.405Z,16.41
2018-06-12T07:24:14.794Z,16.29
2018-06-12T07:25:04.210Z,16.33
2018-06-12T07:26:04.301Z,16.25
2018-06-12T07:27:04.150Z,16.26
2018-06-12T07:28:04.210Z,16.29
2018-06-12T07:29:04.104Z,16.37
2018-06-12T07:30:04.154Z,16.29
2018-06-12T07:31:52.312Z,16.23
2018-06-12T07:32:50.893Z,16.14
2018-06-12T07:33:52.182Z,16.11
2018-06-12T07:34:50.064Z,16.14
2018-06-12T07:35:50.139Z,16.11
2018-06-12T07:36:50.025Z,16.16
2018-06-12T07:37:51.105Z,16.16
2018-06-12T07:38:49.960Z,16.32
2018-06-12T07:39:50.031Z,16.30
2018-06-12T07:40:49.962Z,16.34
2018-06-12T07:41:51.051Z,16.55
2018-06-12T07:42:49.901Z,16.66
2018-06-12T07:43:54.578Z,16.65
2018-06-12T07:44:49.850Z,16.66
2018-06-12T07:45:49.821Z,16.66
2018-06-12T07:46:54.643Z,16.70
2018-06-12T07:47:49.769Z,16.77
2018-06-12T07:48:49.773Z,16.91
2018-06-12T07:49:49.714Z,16.87
2018-06-12T07:50:49.687Z,16.92
2018-06-12T07:51:49.703Z,16.99
2018-06-12T07:52:49.628Z,17.24
2018-06-12T07:53:49.724Z,17.40
2018-06-12T07:55:57.187Z,17.17
2018-06-12T07:56:57.146Z,17.02
2018-06-12T07:57:57.207Z,17.14
2018-06-12T07:58:57.009Z,17.21
2018-06-12T08:00:30.596Z,17.17
2018-06-12T08:00:57.005Z,17.42
2018-06-12T08:48:35.959Z,17.83
2018-06-12T08:57:37.118Z,18.64
2018-06-12T08:58:36.869Z,18.62
2018-06-12T08:59:36.778Z,18.59
2018-06-12T09:00:36.758Z,18.68
2018-06-12T09:01:36.773Z,18.60
2018-06-12T09:02:36.769Z,18.71
2018-06-12T09:03:36.779Z,18.89
2018-06-12T09:04:36.631Z,18.76
2018-06-12T09:05:37.698Z,18.86
2018-06-12T09:06:36.560Z,18.84
2018-06-12T09:07:36.551Z,18.91
2018-06-12T09:08:36.532Z,18.79
2018-06-12T09:09:36.532Z,18.60
2018-06-12T09:10:36.473Z,18.64
2018-06-12T09:11:36.440Z,18.44
2018-06-12T09:12:36.419Z,18.29
2018-06-12T09:13:37.451Z,18.39
2018-06-12T09:14:36.384Z,18.34
2018-06-12T09:15:36.349Z,18.34
2018-06-12T09:16:37.375Z,18.29
2018-06-12T09:17:36.312Z,18.32
2018-06-12T09:18:36.314Z,18.44
2018-06-12T09:19:36.382Z,18.59
2018-06-12T11:00:44.906Z,19.17
2018-06-12T11:16:45.220Z,19.78
2018-06-12T11:17:47.265Z,19.78
2018-06-12T11:18:45.097Z,19.89
2018-06-12T11:20:50.495Z,19.72
2018-06-12T11:21:46.008Z,19.61
2018-06-12T11:22:44.917Z,19.71
2018-06-12T11:23:46.038Z,19.68
2018-06-12T11:24:44.871Z,19.65
2018-06-12T11:25:45.896Z,19.79
2018-06-12T11:26:44.847Z,19.78
2018-06-12T11:27:45.011Z,19.90
2018-06-12T11:33:09.571Z,19.85
2018-06-12T11:34:04.191Z,19.68
2018-06-12T11:35:04.132Z,19.71
2018-06-12T11:36:05.297Z,19.62
2018-06-12T11:37:04.093Z,19.68
2018-06-12T11:42:14.091Z,19.78
2018-06-12T11:43:03.823Z,19.76
2018-06-12T11:45:35.656Z,19.72
2018-06-12T11:47:36.546Z,19.72
2018-06-12T11:48:27.000Z,19.58
2018-06-12T11:49:26.643Z,19.62
2018-06-12T11:54:26.473Z,20.02
2018-06-12T11:55:38.942Z,19.90
2018-06-12T11:56:26.681Z,19.94
2018-06-12T12:01:23.380Z,20.34
2018-06-12T12:02:20.201Z,20.37
2018-06-12T12:03:22.021Z,20.10
2018-06-12T12:05:23.565Z,19.80
2018-06-12T12:07:25.792Z,19.62
2018-06-12T12:08:19.803Z,19.57
2018-06-12T12:09:20.787Z,19.53
2018-06-12T12:10:19.765Z,19.62
2018-06-12T13:22:49.510Z,18.47
2018-06-12T13:24:49.415Z,18.44
2018-06-12T13:25:41.271Z,18.46
2018-06-12T13:27:05.445Z,18.29
2018-06-12T13:29:40.662Z,18.38
2018-06-12T13:31:12.314Z,18.44
2018-06-12T13:31:40.563Z,18.36
2018-06-12T13:34:18.863Z,18.32
2018-06-12T13:37:12.721Z,18.19
2018-06-12T13:38:12.696Z,18.31
2018-06-12T13:41:46.849Z,18.23
2018-06-12T13:43:45.535Z,18.11
2018-06-12T13:44:52.098Z,18.10
2018-06-12T13:45:45.468Z,18.11
2018-06-12T13:46:47.489Z,18.14
2018-06-12T13:47:45.422Z,18.19
2018-06-12T14:02:25.488Z,18.32
2018-06-12T14:03:26.049Z,18.35
2018-06-12T14:04:24.444Z,18.39
2018-06-12T14:05:19.098Z,18.51
2018-06-12T14:06:19.074Z,18.57
2018-06-12T14:07:21.026Z,18.59
2018-06-12T14:08:19.358Z,18.53
2018-06-12T14:09:19.803Z,18.60
2018-06-12T14:16:12.312Z,18.86
2018-06-12T14:17:02.629Z,18.84
2018-06-12T14:18:02.616Z,18.91
2018-06-12T14:19:02.529Z,18.94
2018-06-12T14:20:03.627Z,18.90
2018-06-12T14:21:02.421Z,19.05
2018-06-12T14:22:02.499Z,19.02
2018-06-12T14:23:02.398Z,18.91
2018-06-12T14:24:02.610Z,19.02
2018-06-12T14:25:02.345Z,19.06
2018-06-12T14:26:48.457Z,19.09
2018-06-12T14:27:49.533Z,19.28
2018-06-12T14:28:48.370Z,19.32
2018-06-12T14:29:51.014Z,19.50
2018-06-12T14:30:48.234Z,19.57
2018-06-12T14:31:48.348Z,19.60
2018-06-12T14:32:48.312Z,19.62
2018-06-12T14:34:34.034Z,19.79
2018-06-12T14:35:36.618Z,19.75
2018-06-12T14:37:48.899Z,19.70
2018-06-12T14:38:46.498Z,19.78
2018-06-12T14:39:46.755Z,19.72
2018-06-12T14:53:14.879Z,19.50
2018-06-12T14:54:11.864Z,19.55
2018-06-12T14:55:10.961Z,19.60
2018-06-12T14:56:05.149Z,19.53
2018-06-12T14:57:17.506Z,19.57
2018-06-12T14:58:04.651Z,19.60
2018-06-12T14:59:15.743Z,19.60
2018-06-12T15:00:04.577Z,19.61
2018-06-12T15:01:04.679Z,19.58
2018-06-12T15:02:04.521Z,19.50
2018-06-12T15:11:32.456Z,18.99
2018-06-12T15:12:33.546Z,18.94
2018-06-12T15:13:27.621Z,18.93
2018-06-12T15:14:27.422Z,18.86
2018-06-12T15:17:27.281Z,18.99
2018-06-12T15:18:29.358Z,18.97
2018-06-12T15:24:33.129Z,19.20
2018-06-12T15:25:34.296Z,19.21
2018-06-12T15:26:33.236Z,19.28
2018-06-12T15:27:33.159Z,19.35
2018-06-12T15:28:33.288Z,19.43
2018-06-12T15:29:32.962Z,19.46
2018-06-12T15:33:30.065Z,19.57
2018-06-12T15:34:29.621Z,19.72
2018-06-12T15:35:29.640Z,19.64
2018-06-12T15:36:29.614Z,19.71
2018-06-12T15:37:29.791Z,19.72
2018-06-12T15:38:29.466Z,19.61
2018-06-12T15:39:29.363Z,19.68
2018-06-12T15:47:15.805Z,19.82
2018-06-12T15:48:11.702Z,19.62
2018-06-12T15:49:18.238Z,19.61
2018-06-12T17:04:52.504Z,18.59
2018-06-12T17:07:16.644Z,18.62
2018-06-12T17:07:17.281Z,18.60
2018-06-12T17:08:18.138Z,18.56
2018-06-12T17:40:24.277Z,17.79
2018-06-12T17:41:30.018Z,17.86
2018-06-12T17:42:17.120Z,17.81
2018-06-12T17:43:27.879Z,17.80
2018-06-12T17:44:16.572Z,17.80
2018-06-12T19:39:57.758Z,16.06
2018-06-12T19:41:13.265Z,16.10
2018-06-12T19:41:57.324Z,16.16
2018-06-12T19:42:57.212Z,16.13
2018-06-12T19:44:57.179Z,16.25
2018-06-12T19:45:56.956Z,16.13
2018-06-12T19:47:02.587Z,16.17
